No particular awareness of the weather is required.    There are no Weather-warnings


Meteo18 Weather Cam more information Meteo18 Weather Cam


Thunder radar more information blitzortung!


Rain radar more information rain snow radar


Visit our other weather sites:

Template documentation
and downloads

And another site



Weather Underground History page Text

Daily Summary for January 5, 2016 Units:  Metric    English   Both
« Previous Day
Next Day »
Daily Weekly Monthly Yearly Custom
  High: Low: Average:
Temperature: 8.4 °C 4.6 °C 6.2 °C
Dew Point: 6.0 °C 4.0 °C 4.8 °C
Humidity: 98 % 82 % 91 %
Wind Speed: 14.5 km/h 0.0 km/h 4.6 km/h
Wind Gust: 20.9 km/h - -
Wind:- - SW
Pressure: 996.8 hPa 993.5 hPa -
Precipitation: 1.3 mm    
Historical Graphs
 
 
Tabular Data for January 5, 2016
Time Temperature Dew Point Pressure Wind Wind Speed Wind Gust Humidity Rainfall Rate (Hourly)
00:02 5.7 °C 5.1 °C 993.8 hPa SW 3.2 km/h 9.7 km/h 96 % 0.3 mm
00:07 5.7 °C 5.1 °C 993.8 hPa SW 3.2 km/h 9.7 km/h 96 % 0.3 mm
00:17 5.8 °C 5.2 °C 993.8 hPa WSW 1.6 km/h 11.3 km/h 96 % 0.3 mm
00:22 5.7 °C 5.1 °C 993.8 hPa SW 6.4 km/h 11.3 km/h 96 % 0.3 mm
00:32 5.7 °C 5.1 °C 993.8 hPa SW 3.2 km/h 11.3 km/h 96 % 0.3 mm
00:37 5.6 °C 5.0 °C 993.8 hPa West 6.4 km/h 11.3 km/h 96 % 0.3 mm
00:42 5.6 °C 5.0 °C 993.8 hPa SW 6.4 km/h 11.3 km/h 96 % 0.3 mm
00:47 5.6 °C 5.0 °C 993.5 hPa WSW 1.6 km/h 9.7 km/h 96 % 0.3 mm
00:57 5.2 °C 4.6 °C 993.8 hPa WSW 1.6 km/h 8.0 km/h 96 % 0.3 mm
01:07 4.9 °C 4.3 °C 993.8 hPa Calm   8.0 km/h 96 % 0.3 mm
01:12 4.8 °C 4.2 °C 993.8 hPa SW 1.6 km/h 8.0 km/h 96 % 0.3 mm
01:22 4.8 °C 4.4 °C 993.8 hPa WSW 1.6 km/h 6.4 km/h 97 % 0.3 mm
01:27 4.9 °C 4.5 °C 993.8 hPa SW 1.6 km/h 4.8 km/h 97 % 0.3 mm
01:32 4.9 °C 4.5 °C 993.8 hPa SW 3.2 km/h 4.8 km/h 97 % 0.3 mm
01:42 4.8 °C 4.4 °C 993.8 hPa WSW 1.6 km/h 3.2 km/h 97 % 0.3 mm
02:02 4.8 °C 4.4 °C 993.5 hPa Calm   3.2 km/h 97 % 0.0 mm
02:07 4.7 °C 4.3 °C 993.5 hPa Calm   3.2 km/h 97 % 0.0 mm
02:14 4.7 °C 4.3 °C 993.5 hPa Calm   3.2 km/h 97 % 0.0 mm
02:22 4.6 °C 4.2 °C 993.5 hPa Calm   1.6 km/h 97 % 0.0 mm
02:29 4.6 °C 4.2 °C 993.5 hPa Calm     97 % 0.0 mm
02:37 4.6 °C 4.2 °C 993.8 hPa SW 1.6 km/h 4.8 km/h 97 % 0.0 mm
02:47 4.7 °C 4.3 °C 993.8 hPa SW 1.6 km/h 4.8 km/h 97 % 0.0 mm
02:52 4.8 °C 4.5 °C 993.8 hPa WSW 1.6 km/h 4.8 km/h 98 % 0.0 mm
03:02 4.8 °C 4.4 °C 993.8 hPa WSW 1.6 km/h 4.8 km/h 97 % 0.0 mm
03:07 4.8 °C 4.4 °C 993.8 hPa Calm   4.8 km/h 97 % 0.0 mm
03:12 4.7 °C 4.3 °C 994.1 hPa Calm   4.8 km/h 97 % 0.0 mm
03:22 4.9 °C 4.5 °C 994.1 hPa SSE 1.6 km/h 3.2 km/h 97 % 0.0 mm
03:27 5.0 °C 4.6 °C 994.1 hPa WSW 1.6 km/h 4.8 km/h 97 % 0.0 mm
03:32 5.1 °C 4.7 °C 994.1 hPa Calm   6.4 km/h 97 % 0.0 mm
03:42 5.1 °C 4.7 °C 994.1 hPa Calm   6.4 km/h 97 % 0.0 mm
03:47 5.1 °C 4.7 °C 994.1 hPa SW 3.2 km/h 6.4 km/h 97 % 0.0 mm
03:57 5.3 °C 4.7 °C 993.8 hPa SW 3.2 km/h 9.7 km/h 96 % 0.0 mm
04:07 5.3 °C 4.6 °C 993.8 hPa SSW 3.2 km/h 8.0 km/h 95 % 0.0 mm
04:17 5.3 °C 4.6 °C 993.8 hPa WSW 1.6 km/h 8.0 km/h 95 % 0.0 mm
04:22 5.3 °C 4.6 °C 993.8 hPa WSW 1.6 km/h 8.0 km/h 95 % 0.0 mm
04:32 5.4 °C 4.7 °C 994.1 hPa SW 3.2 km/h 9.7 km/h 95 % 0.0 mm
04:37 5.4 °C 4.7 °C 993.8 hPa WSW 3.2 km/h 9.7 km/h 95 % 0.0 mm
04:47 5.2 °C 4.3 °C 993.8 hPa Calm   11.3 km/h 94 % 0.0 mm
05:03 5.2 °C 4.5 °C 993.8 hPa Calm   9.7 km/h 95 % 0.0 mm
05:12 5.3 °C 4.6 °C 994.1 hPa SW 3.2 km/h 8.0 km/h 95 % 0.0 mm
05:17 5.3 °C 4.4 °C 993.8 hPa SW 6.4 km/h 8.0 km/h 94 % 0.0 mm
05:27 4.9 °C 4.0 °C 993.8 hPa SSW 4.8 km/h 9.7 km/h 94 % 0.0 mm
05:37 4.9 °C 4.2 °C 993.8 hPa SSW 3.2 km/h 8.0 km/h 95 % 0.0 mm
05:42 4.8 °C 4.1 °C 993.8 hPa Calm   8.0 km/h 95 % 0.0 mm
05:47 4.8 °C 4.1 °C 993.8 hPa WSW 4.8 km/h 8.0 km/h 95 % 0.0 mm
05:57 4.7 °C 4.0 °C 993.8 hPa Calm   9.7 km/h 95 % 0.0 mm
06:07 4.8 °C 4.1 °C 994.1 hPa Calm   9.7 km/h 95 % 0.0 mm
06:12 4.9 °C 4.2 °C 994.1 hPa SSE 1.6 km/h 9.7 km/h 95 % 0.0 mm
06:22 5.2 °C 4.5 °C 994.1 hPa WSW 4.8 km/h 11.3 km/h 95 % 0.0 mm
06:32 5.3 °C 4.6 °C 994.1 hPa SSW 6.4 km/h 11.3 km/h 95 % 0.0 mm
06:37 5.3 °C 4.4 °C 994.1 hPa SW 4.8 km/h 11.3 km/h 94 % 0.0 mm
06:47 5.4 °C 4.5 °C 994.1 hPa SW 3.2 km/h 11.3 km/h 94 % 0.0 mm
06:57 5.4 °C 4.5 °C 994.1 hPa WSW 4.8 km/h 11.3 km/h 94 % 0.0 mm
07:02 5.4 °C 4.5 °C 994.1 hPa WSW 6.4 km/h 9.7 km/h 94 % 0.0 mm
07:07 5.4 °C 4.5 °C 994.1 hPa SW 6.4 km/h 9.7 km/h 94 % 0.0 mm
07:17 5.4 °C 4.5 °C 994.5 hPa SW 1.6 km/h 8.0 km/h 94 % 0.0 mm
07:27 5.3 °C 4.4 °C 994.1 hPa SW 3.2 km/h 6.4 km/h 94 % 0.0 mm
07:37 5.3 °C 4.4 °C 994.5 hPa Calm   6.4 km/h 94 % 0.0 mm
07:47 5.3 °C 4.6 °C 994.1 hPa WSW 1.6 km/h 6.4 km/h 95 % 0.0 mm
07:57 5.2 °C 4.5 °C 994.1 hPa WSW 6.4 km/h 8.0 km/h 95 % 0.3 mm
08:02 5.2 °C 4.5 °C 994.1 hPa WSW 1.6 km/h 8.0 km/h 95 % 0.3 mm
08:12 5.2 °C 4.5 °C 994.5 hPa SW 1.6 km/h 9.7 km/h 95 % 0.3 mm
08:17 5.2 °C 4.5 °C 994.5 hPa WSW 1.6 km/h 9.7 km/h 95 % 0.3 mm
08:22 5.2 °C 4.5 °C 994.5 hPa SW 6.4 km/h 9.7 km/h 95 % 0.3 mm
08:32 5.2 °C 4.5 °C 994.5 hPa WSW 1.6 km/h 8.0 km/h 95 % 0.3 mm
08:37 5.2 °C 4.5 °C 994.5 hPa SSE 1.6 km/h 6.4 km/h 95 % 0.3 mm
08:42 5.3 °C 4.6 °C 994.5 hPa SW 4.8 km/h 9.7 km/h 95 % 0.3 mm
08:52 5.4 °C 4.5 °C 994.5 hPa SW 6.4 km/h 14.5 km/h 94 % 0.3 mm
08:57 5.5 °C 4.6 °C 994.8 hPa SW 6.4 km/h 14.5 km/h 94 % 0.0 mm
09:02 5.5 °C 4.5 °C 994.8 hPa SW 6.4 km/h 14.5 km/h 93 % 0.0 mm
09:07 5.5 °C 4.5 °C 994.8 hPa WSW 6.4 km/h 14.5 km/h 93 % 0.0 mm
09:17 5.6 °C 4.6 °C 995.1 hPa SW 4.8 km/h 14.5 km/h 93 % 0.3 mm
09:24 5.7 °C 4.7 °C 994.8 hPa SW 3.2 km/h 12.9 km/h 93 % 0.3 mm
09:32 5.7 °C 4.7 °C 995.1 hPa SW 4.8 km/h 12.9 km/h 93 % 0.3 mm
09:44 5.7 °C 4.7 °C 995.1 hPa WSW 6.4 km/h 14.5 km/h 93 % 0.5 mm
09:52 5.8 °C 4.8 °C 995.1 hPa SW 6.4 km/h 14.5 km/h 93 % 0.5 mm
09:59 5.8 °C 4.8 °C 995.1 hPa SW 8.0 km/h 14.5 km/h 93 % 0.5 mm
10:09 6.0 °C 5.0 °C 995.5 hPa Calm   17.7 km/h 93 % 0.5 mm
10:17 6.2 °C 5.0 °C 995.5 hPa SW 3.2 km/h 14.5 km/h 92 % 0.3 mm
10:22 6.2 °C 5.0 °C 995.5 hPa SW 6.4 km/h 14.5 km/h 92 % 0.3 mm
10:32 6.2 °C 5.0 °C 995.5 hPa WSW 8.0 km/h 16.1 km/h 92 % 0.3 mm
10:37 6.2 °C 5.0 °C 995.5 hPa SW 4.8 km/h 16.1 km/h 92 % 0.3 mm
10:42 6.3 °C 5.1 °C 995.5 hPa SW 9.7 km/h 19.3 km/h 92 % 0.0 mm
10:47 6.3 °C 5.1 °C 995.5 hPa SW 6.4 km/h 19.3 km/h 92 % 0.0 mm
10:57 6.5 °C 5.1 °C 995.8 hPa WSW 4.8 km/h 16.1 km/h 91 % 0.0 mm
11:02 6.4 °C 5.0 °C 995.8 hPa SW 9.7 km/h 16.1 km/h 91 % 0.0 mm
11:07 6.4 °C 5.2 °C 995.8 hPa SSW 1.6 km/h 20.9 km/h 92 % 0.0 mm
11:12 6.4 °C 5.2 °C 995.8 hPa SSE 3.2 km/h 20.9 km/h 92 % 0.0 mm
11:17 6.4 °C 5.2 °C 995.8 hPa SSW 11.3 km/h 20.9 km/h 92 % 0.0 mm
11:29 6.7 °C 5.3 °C 995.8 hPa WSW 6.4 km/h 14.5 km/h 91 % 0.0 mm
11:34 6.8 °C 5.4 °C 995.8 hPa South 4.8 km/h 14.5 km/h 91 % 0.0 mm
11:42 6.9 °C 5.5 °C 995.8 hPa WSW 6.4 km/h 17.7 km/h 91 % 0.0 mm
11:52 7.2 °C 5.7 °C 995.5 hPa WSW 1.6 km/h 17.7 km/h 90 % 0.0 mm
12:02 7.4 °C 5.7 °C 995.5 hPa SW 6.4 km/h 16.1 km/h 89 % 0.0 mm
12:12 7.6 °C 5.7 °C 995.5 hPa WSW 4.8 km/h 17.7 km/h 88 % 0.0 mm
12:22 7.6 °C 5.6 °C 995.5 hPa SW 6.4 km/h 19.3 km/h 87 % 0.0 mm
12:27 7.5 °C 5.8 °C 995.5 hPa SW 8.0 km/h 19.3 km/h 89 % 0.0 mm
12:37 7.4 °C 5.7 °C 995.5 hPa SW 8.0 km/h 16.1 km/h 89 % 0.0 mm
12:47 7.4 °C 5.5 °C 995.5 hPa SW 3.2 km/h 14.5 km/h 88 % 0.3 mm
12:52 7.5 °C 5.6 °C 995.5 hPa SW 3.2 km/h 16.1 km/h 88 % 0.3 mm
12:57 7.7 °C 6.0 °C 995.5 hPa SW 6.4 km/h 16.1 km/h 89 % 0.3 mm
13:02 7.7 °C 5.7 °C 995.5 hPa SSW 4.8 km/h 14.5 km/h 87 % 0.3 mm
13:07 7.8 °C 5.8 °C 995.5 hPa WSW 11.3 km/h 16.1 km/h 87 % 0.3 mm
13:17 7.7 °C 5.5 °C 995.5 hPa SW 8.0 km/h 17.7 km/h 86 % 0.3 mm
13:27 7.7 °C 5.3 °C 995.5 hPa WSW 6.4 km/h 16.1 km/h 85 % 0.3 mm
13:32 7.7 °C 5.5 °C 995.1 hPa West 4.8 km/h 14.5 km/h 86 % 0.3 mm
13:37 7.8 °C 5.8 °C 995.1 hPa SW 1.6 km/h 14.5 km/h 87 % 0.3 mm
13:42 7.9 °C 5.7 °C 995.1 hPa WSW 4.8 km/h 14.5 km/h 86 % 0.3 mm
13:47 8.1 °C 5.9 °C 995.1 hPa SW 8.0 km/h 14.5 km/h 86 % 0.0 mm
13:52 8.1 °C 5.7 °C 995.1 hPa SW 8.0 km/h 14.5 km/h 85 % 0.0 mm
13:57 8.2 °C 6.0 °C 995.1 hPa SW 4.8 km/h 14.5 km/h 86 % 0.0 mm
14:07 8.1 °C 5.9 °C 995.1 hPa SSW 3.2 km/h 14.5 km/h 86 % 0.0 mm
14:17 8.1 °C 5.9 °C 995.1 hPa SW 14.5 km/h 14.5 km/h 86 % 0.0 mm
14:22 8.2 °C 5.8 °C 994.8 hPa WSW 3.2 km/h 14.5 km/h 85 % 0.0 mm
14:27 8.4 °C 6.0 °C 994.8 hPa SW 9.7 km/h 14.5 km/h 85 % 0.0 mm
14:32 8.4 °C 5.9 °C 994.8 hPa WSW 6.4 km/h 14.5 km/h 84 % 0.0 mm
14:37 8.4 °C 5.7 °C 994.8 hPa SW 4.8 km/h 12.9 km/h 83 % 0.0 mm
14:42 8.4 °C 5.7 °C 994.8 hPa Calm   12.9 km/h 83 % 0.0 mm
14:47 8.4 °C 5.7 °C 994.8 hPa SW 9.7 km/h 16.1 km/h 83 % 0.0 mm
14:52 8.4 °C 5.5 °C 994.8 hPa WSW 6.4 km/h 20.9 km/h 82 % 0.0 mm
14:57 8.3 °C 5.6 °C 994.8 hPa WSW 3.2 km/h 20.9 km/h 83 % 0.0 mm
15:02 8.3 °C 5.6 °C 994.8 hPa WSW 3.2 km/h 20.9 km/h 83 % 0.0 mm
15:07 8.1 °C 5.6 °C 994.8 hPa SW 9.7 km/h 11.3 km/h 84 % 0.0 mm
15:22 7.7 °C 5.5 °C 994.8 hPa South 3.2 km/h 16.1 km/h 86 % 0.0 mm
15:27 7.9 °C 5.7 °C 994.8 hPa SW 3.2 km/h 16.1 km/h 86 % 0.0 mm
15:32 7.9 °C 5.7 °C 994.8 hPa SW 3.2 km/h 11.3 km/h 86 % 0.0 mm
15:37 7.8 °C 5.4 °C 995.1 hPa SW 3.2 km/h 11.3 km/h 85 % 0.0 mm
15:42 7.8 °C 5.4 °C 995.1 hPa WSW 8.0 km/h 16.1 km/h 85 % 0.0 mm
15:47 7.8 °C 5.3 °C 995.1 hPa SW 3.2 km/h 16.1 km/h 84 % 0.0 mm
15:52 7.7 °C 5.2 °C 995.1 hPa West 6.4 km/h 16.1 km/h 84 % 0.0 mm
15:57 7.7 °C 5.2 °C 995.1 hPa WSW 6.4 km/h 16.1 km/h 84 % 0.0 mm
16:02 7.7 °C 5.3 °C 995.1 hPa SSE 3.2 km/h 16.1 km/h 85 % 0.0 mm
16:07 7.6 °C 5.4 °C 995.1 hPa SW 6.4 km/h 16.1 km/h 86 % 0.0 mm
16:12 7.4 °C 5.2 °C 995.1 hPa SE 8.0 km/h 14.5 km/h 86 % 0.0 mm
16:17 7.3 °C 5.1 °C 995.1 hPa SW 8.0 km/h 20.9 km/h 86 % 0.0 mm
16:22 7.1 °C 5.1 °C 995.1 hPa ESE 11.3 km/h 20.9 km/h 87 % 0.0 mm
16:27 6.9 °C 4.9 °C 995.1 hPa SW 8.0 km/h 16.1 km/h 87 % 0.0 mm
16:32 6.8 °C 4.8 °C 995.1 hPa WSW 6.4 km/h 14.5 km/h 87 % 0.0 mm
16:37 6.8 °C 4.8 °C 995.1 hPa WSW 9.7 km/h 14.5 km/h 87 % 0.0 mm
16:47 6.8 °C 4.8 °C 995.1 hPa SW 4.8 km/h 14.5 km/h 87 % 0.0 mm
16:52 6.8 °C 5.0 °C 995.1 hPa WSW 3.2 km/h 12.9 km/h 88 % 0.0 mm
17:02 6.8 °C 5.1 °C 995.1 hPa SW 6.4 km/h 12.9 km/h 89 % 0.0 mm
17:07 6.7 °C 4.9 °C 995.1 hPa SSW 14.5 km/h 14.5 km/h 88 % 0.0 mm
17:12 6.8 °C 4.8 °C 995.1 hPa SW 6.4 km/h 14.5 km/h 87 % 0.0 mm
17:22 6.9 °C 4.7 °C 995.1 hPa SW 4.8 km/h 17.7 km/h 86 % 0.0 mm
17:27 6.9 °C 4.7 °C 995.1 hPa West 6.4 km/h 17.7 km/h 86 % 0.0 mm
17:32 6.8 °C 4.6 °C 995.1 hPa WSW 6.4 km/h 17.7 km/h 86 % 0.0 mm
17:37 6.7 °C 4.5 °C 995.1 hPa SW 9.7 km/h 12.9 km/h 86 % 0.0 mm
17:42 6.7 °C 4.5 °C 995.5 hPa WSW 6.4 km/h 12.9 km/h 86 % 0.0 mm
17:47 6.7 °C 4.7 °C 995.5 hPa WSW 6.4 km/h 12.9 km/h 87 % 0.0 mm
17:52 6.6 °C 4.4 °C 995.5 hPa SW 6.4 km/h 12.9 km/h 86 % 0.0 mm
17:57 6.6 °C 4.4 °C 995.5 hPa WSW 3.2 km/h 16.1 km/h 86 % 0.0 mm
18:02 6.5 °C 4.3 °C 995.5 hPa SW 4.8 km/h 16.1 km/h 86 % 0.0 mm
18:07 6.5 °C 4.3 °C 995.5 hPa WSW 6.4 km/h 16.1 km/h 86 % 0.0 mm
18:12 6.4 °C 4.2 °C 995.5 hPa West 4.8 km/h 14.5 km/h 86 % 0.0 mm
18:17 6.4 °C 4.4 °C 995.5 hPa SW 6.4 km/h 17.7 km/h 87 % 0.0 mm
18:22 6.3 °C 4.5 °C 995.5 hPa WSW 6.4 km/h 17.7 km/h 88 % 0.0 mm
18:27 6.2 °C 4.4 °C 995.5 hPa SW 6.4 km/h 11.3 km/h 88 % 0.0 mm
18:37 6.2 °C 4.5 °C 995.8 hPa SW 6.4 km/h 12.9 km/h 89 % 0.0 mm
18:42 6.2 °C 4.5 °C 995.5 hPa SW 6.4 km/h 12.9 km/h 89 % 0.0 mm
18:47 6.1 °C 4.6 °C 995.8 hPa SW 4.8 km/h 12.9 km/h 90 % 0.0 mm
18:52 6.1 °C 4.6 °C 995.8 hPa SW 6.4 km/h 12.9 km/h 90 % 0.0 mm
18:57 6.1 °C 4.6 °C 995.8 hPa SW 6.4 km/h 11.3 km/h 90 % 0.0 mm
19:02 6.1 °C 4.6 °C 995.8 hPa South 4.8 km/h 12.9 km/h 90 % 0.0 mm
19:07 6.2 °C 4.5 °C 995.8 hPa WSW 1.6 km/h 12.9 km/h 89 % 0.0 mm
19:12 6.2 °C 4.7 °C 995.8 hPa SW 4.8 km/h 12.9 km/h 90 % 0.0 mm
19:17 6.2 °C 4.7 °C 995.8 hPa SW 3.2 km/h 9.7 km/h 90 % 0.0 mm
19:22 6.2 °C 4.7 °C 995.8 hPa WSW 3.2 km/h 12.9 km/h 90 % 0.0 mm
19:27 6.2 °C 4.7 °C 995.8 hPa SW 3.2 km/h 12.9 km/h 90 % 0.0 mm
19:32 6.1 °C 4.6 °C 995.8 hPa SW 6.4 km/h 12.9 km/h 90 % 0.0 mm
19:37 6.1 °C 4.6 °C 995.8 hPa SW 6.4 km/h 14.5 km/h 90 % 0.0 mm
19:42 6.2 °C 4.7 °C 996.2 hPa SW 4.8 km/h 14.5 km/h 90 % 0.0 mm
19:47 6.3 °C 4.6 °C 996.2 hPa SW 4.8 km/h 17.7 km/h 89 % 0.0 mm
19:52 6.4 °C 4.7 °C 995.8 hPa SW 6.4 km/h 19.3 km/h 89 % 0.0 mm
19:57 6.3 °C 4.8 °C 995.8 hPa SW 4.8 km/h 19.3 km/h 90 % 0.0 mm
20:02 6.2 °C 4.7 °C 995.8 hPa SW 4.8 km/h 19.3 km/h 90 % 0.0 mm
20:07 6.3 °C 4.6 °C 995.8 hPa SSW 4.8 km/h 14.5 km/h 89 % 0.0 mm
20:12 6.4 °C 4.7 °C 996.2 hPa WSW 1.6 km/h 14.5 km/h 89 % 0.0 mm
20:17 6.4 °C 4.7 °C 996.2 hPa Calm   14.5 km/h 89 % 0.0 mm
20:22 6.2 °C 4.7 °C 996.2 hPa SE 6.4 km/h 12.9 km/h 90 % 0.0 mm
20:27 6.1 °C 4.6 °C 996.2 hPa SW 8.0 km/h 12.9 km/h 90 % 0.0 mm
20:32 6.0 °C 4.6 °C 996.2 hPa WSW 6.4 km/h 9.7 km/h 91 % 0.0 mm
20:37 6.0 °C 4.6 °C 996.2 hPa SW 4.8 km/h 9.7 km/h 91 % 0.0 mm
20:42 6.0 °C 4.6 °C 996.2 hPa SSW 4.8 km/h 8.0 km/h 91 % 0.0 mm
20:47 6.1 °C 4.7 °C 996.2 hPa SW 4.8 km/h 9.7 km/h 91 % 0.0 mm
20:52 6.1 °C 4.7 °C 996.2 hPa SW 4.8 km/h 9.7 km/h 91 % 0.0 mm
20:57 6.1 °C 4.7 °C 996.2 hPa SW 6.4 km/h 11.3 km/h 91 % 0.0 mm
21:07 5.9 °C 4.7 °C 996.2 hPa WSW 4.8 km/h 11.3 km/h 92 % 0.0 mm
21:12 5.9 °C 4.7 °C 996.2 hPa WSW 4.8 km/h 9.7 km/h 92 % 0.3 mm
21:17 5.9 °C 4.7 °C 996.2 hPa ESE 1.6 km/h 11.3 km/h 92 % 0.3 mm
21:22 5.8 °C 4.6 °C 996.5 hPa SW 3.2 km/h 11.3 km/h 92 % 0.3 mm
21:27 5.8 °C 4.8 °C 996.5 hPa WSW 3.2 km/h 11.3 km/h 93 % 0.3 mm
21:32 5.9 °C 4.7 °C 996.5 hPa SW 3.2 km/h 9.7 km/h 92 % 0.3 mm
21:37 5.8 °C 4.6 °C 996.5 hPa South 3.2 km/h 9.7 km/h 92 % 0.3 mm
21:49 5.8 °C 4.8 °C 996.5 hPa SW 6.4 km/h 8.0 km/h 93 % 0.3 mm
21:57 5.8 °C 4.6 °C 996.5 hPa SW 3.2 km/h 8.0 km/h 92 % 0.3 mm
22:02 5.8 °C 4.6 °C 996.5 hPa WSW 6.4 km/h 8.0 km/h 92 % 0.3 mm
22:12 5.8 °C 4.8 °C 996.5 hPa SW 6.4 km/h 8.0 km/h 93 % 0.0 mm
22:17 5.8 °C 4.8 °C 996.5 hPa Calm   8.0 km/h 93 % 0.0 mm
22:22 5.7 °C 4.7 °C 996.5 hPa SSE 4.8 km/h 8.0 km/h 93 % 0.0 mm
22:27 5.8 °C 4.6 °C 996.5 hPa WSW 1.6 km/h 8.0 km/h 92 % 0.0 mm
22:32 5.8 °C 4.6 °C 996.5 hPa SW 6.4 km/h 11.3 km/h 92 % 0.0 mm
22:37 5.9 °C 4.5 °C 996.5 hPa SW 4.8 km/h 14.5 km/h 91 % 0.0 mm
22:42 6.0 °C 4.6 °C 996.5 hPa WSW 8.0 km/h 14.5 km/h 91 % 0.0 mm
22:47 6.1 °C 4.7 °C 996.5 hPa WSW 3.2 km/h 14.5 km/h 91 % 0.0 mm
22:52 6.1 °C 4.7 °C 996.5 hPa SW 8.0 km/h 12.9 km/h 91 % 0.0 mm
22:57 6.1 °C 4.6 °C 996.5 hPa WSW 9.7 km/h 12.9 km/h 90 % 0.0 mm
23:02 6.1 °C 4.6 °C 996.5 hPa WSW 1.6 km/h 12.9 km/h 90 % 0.0 mm
23:07 6.1 °C 4.6 °C 996.5 hPa SW 6.4 km/h 16.1 km/h 90 % 0.0 mm
23:12 6.1 °C 4.6 °C 996.5 hPa SW 6.4 km/h 16.1 km/h 90 % 0.0 mm
23:17 6.1 °C 4.6 °C 996.5 hPa WSW 6.4 km/h 16.1 km/h 90 % 0.0 mm
23:22 6.1 °C 4.6 °C 996.5 hPa Calm   14.5 km/h 90 % 0.0 mm
23:27 6.1 °C 4.7 °C 996.8 hPa SW 6.4 km/h 12.9 km/h 91 % 0.0 mm
23:32 6.1 °C 4.6 °C 996.8 hPa WSW 8.0 km/h 14.5 km/h 90 % 0.0 mm
23:42 6.0 °C 4.6 °C 996.8 hPa SW 1.6 km/h 14.5 km/h 91 % 0.0 mm
23:47 6.0 °C 4.6 °C 996.8 hPa SSE 4.8 km/h 14.5 km/h 91 % 0.0 mm
23:52 6.0 °C 4.6 °C 996.8 hPa WSW 1.6 km/h 14.5 km/h 91 % 0.0 mm
23:57 6.0 °C 4.6 °C 996.8 hPa SSW 8.0 km/h 14.5 km/h 91 % 0.0 mm
Meteo18
Compliments of Weather Underground - 4 mb

Script developed by  Jim McMurry - jmcmurry@mwt.net Adapted for the template by  Wim van der Kuil - Leuven-Template.eu

You find our weather info also at:

European Weather Network

Weather Underground

Equipment we use:

Weather-station
Davis Vue

Weather-program
Meteohub

Weather-server
Raspberry PI 2 B+

Provider
1 and 1

Davis Vue

Meteohub

Raspberry PI 2 B+

1 and 1